Time;durP1;ratioP1;P1;durP2;ratioP2;P2;SDS_P1;SDS_P2;PMS_P1;PMS_P2;Temp;Humidity;BMP_temperature;BMP_pressure;BME280_temperature;BME280_humidity;BME280_pressure;Samples;Min_cycle;Max_cycle;Signal;HPM_P1;HPM_P2
2023/10/17 00:00:51;;;;;;;0.20;0.10;;;;;;;;;;4964401;28;20096;-84
2023/10/17 00:03:17;;;;;;;0.20;0.10;;;;;;;;;;4985790;28;20050;-83
2023/10/17 00:05:43;;;;;;;0.20;0.00;;;;;;;;;;4979334;28;20117;-84
2023/10/17 00:08:09;;;;;;;0.20;0.10;;;;;;;;;;4979787;28;20085;-84
2023/10/17 00:10:45;;;;;;;0.20;0.00;;;;;;;;;;4982315;28;20046;-85
2023/10/17 00:15:49;;;;;;;0.20;0.10;;;;;;;;;;4982658;28;20439;-84
2023/10/17 00:18:16;;;;;;;0.20;0.00;;;;;;;;;;4969111;28;20045;-84
2023/10/17 00:20:43;;;;;;;0.20;0.10;;;;;;;;;;4987585;28;20733;-83
2023/10/17 00:23:15;;;;;;;0.20;0.10;;;;;;;;;;4970430;28;20038;-84
2023/10/17 00:25:51;;;;;;;0.20;0.10;;;;;;;;;;4970152;28;20065;-85
2023/10/17 00:28:20;;;;;;;0.43;0.32;;;;;;;;;;4986208;28;20964;-85
2023/10/17 00:30:48;;;;;;;0.20;0.00;;;;;;;;;;4987352;28;20054;-83
2023/10/17 00:33:15;;;;;;;0.20;0.00;;;;;;;;;;4991611;28;20034;-82
2023/10/17 00:35:51;;;;;;;0.20;0.10;;;;;;;;;;4984433;28;20034;-83
2023/10/17 00:38:17;;;;;;;0.20;0.10;;;;;;;;;;4970066;28;20044;-83
2023/10/17 00:40:51;;;;;;;0.20;0.10;;;;;;;;;;4970901;28;20042;-84
2023/10/17 00:43:17;;;;;;;1.90;0.57;;;;;;;;;;4965522;28;20074;-85
2023/10/17 00:45:47;;;;;;;0.20;0.10;;;;;;;;;;4987449;28;20072;-88
2023/10/17 00:48:28;;;;;;;0.20;0.10;;;;;;;;;;4984637;28;20046;-84
2023/10/17 00:51:08;;;;;;;0.20;0.10;;;;;;;;;;4983303;28;20611;-84
2023/10/17 00:53:34;;;;;;;0.35;0.17;;;;;;;;;;4962699;28;20069;-85
2023/10/17 00:56:01;;;;;;;0.20;0.10;;;;;;;;;;4971792;28;20113;-87
2023/10/17 00:58:27;;;;;;;0.20;0.10;;;;;;;;;;4986584;28;20121;-85
2023/10/17 01:00:54;;;;;;;0.20;0.10;;;;;;;;;;4984489;28;20506;-85
2023/10/17 01:03:21;;;;;;;0.20;0.10;;;;;;;;;;4982412;28;20053;-84
2023/10/17 01:08:44;;;;;;;0.20;0.10;;;;;;;;;;4983867;28;20042;-85
2023/10/17 01:11:27;;;;;;;0.20;0.10;;;;;;;;;;4983769;28;20045;-84
2023/10/17 01:13:54;;;;;;;0.20;0.08;;;;;;;;;;4971565;28;20518;-84
2023/10/17 01:16:21;;;;;;;0.20;0.10;;;;;;;;;;4986574;28;20039;-85
2023/10/17 01:18:47;;;;;;;0.20;0.20;;;;;;;;;;4982825;28;20045;-84
2023/10/17 01:21:14;;;;;;;0.20;0.00;;;;;;;;;;4970447;28;20034;-84
2023/10/17 01:23:40;;;;;;;0.20;0.10;;;;;;;;;;4988950;28;20041;-84
2023/10/17 01:26:09;;;;;;;0.20;0.00;;;;;;;;;;4982451;28;20065;-84
2023/10/17 01:28:35;;;;;;;0.20;0.03;;;;;;;;;;4983341;28;20066;-84
2023/10/17 01:31:03;;;;;;;0.20;0.00;;;;;;;;;;4967470;28;20030;-84
2023/10/17 01:33:29;;;;;;;0.20;0.10;;;;;;;;;;4995242;28;20049;-84
2023/10/17 01:36:00;;;;;;;0.20;0.10;;;;;;;;;;4965260;28;20096;-83
2023/10/17 01:38:28;;;;;;;0.20;0.10;;;;;;;;;;4971295;28;20038;-84
2023/10/17 01:40:57;;;;;;;0.20;0.00;;;;;;;;;;4999909;28;20046;-83
2023/10/17 01:43:23;;;;;;;0.20;0.03;;;;;;;;;;4980844;28;20089;-84
2023/10/17 01:45:50;;;;;;;0.20;0.10;;;;;;;;;;4966779;28;20766;-83
2023/10/17 01:48:21;;;;;;;0.20;0.00;;;;;;;;;;4985954;28;20056;-82
2023/10/17 01:50:47;;;;;;;0.20;0.00;;;;;;;;;;4971057;28;20081;-81
2023/10/17 01:53:13;;;;;;;0.25;0.20;;;;;;;;;;4984838;28;20069;-84
2023/10/17 01:55:41;;;;;;;0.20;0.00;;;;;;;;;;4966777;28;20080;-83
2023/10/17 01:58:07;;;;;;;0.40;0.15;;;;;;;;;;4968031;28;20049;-84
2023/10/17 02:03:00;;;;;;;0.20;0.10;;;;;;;;;;5002135;28;20050;-83
2023/10/17 02:05:26;;;;;;;0.20;0.03;;;;;;;;;;4987402;28;20041;-83
2023/10/17 02:07:55;;;;;;;0.20;0.00;;;;;;;;;;4986263;28;20038;-84
2023/10/17 02:10:24;;;;;;;0.20;0.00;;;;;;;;;;4987348;28;20049;-83
2023/10/17 02:12:50;;;;;;;0.20;0.10;;;;;;;;;;4991193;28;20034;-84
2023/10/17 02:15:20;;;;;;;0.20;0.10;;;;;;;;;;4969334;28;20034;-82
2023/10/17 02:17:47;;;;;;;0.20;0.08;;;;;;;;;;4963506;28;20046;-82
2023/10/17 02:22:55;;;;;;;0.20;0.00;;;;;;;;;;4991065;28;20081;-83
2023/10/17 02:25:21;;;;;;;0.20;0.13;;;;;;;;;;4981350;28;20088;-83
2023/10/17 02:27:50;;;;;;;0.22;0.20;;;;;;;;;;4963342;28;20050;-83
2023/10/17 02:30:17;;;;;;;0.20;0.10;;;;;;;;;;4964173;28;20033;-83
2023/10/17 02:32:53;;;;;;;0.20;0.10;;;;;;;;;;4979876;28;20088;-84
2023/10/17 02:35:28;;;;;;;0.20;0.00;;;;;;;;;;4978660;28;20038;-85
2023/10/17 02:37:59;;;;;;;0.20;0.10;;;;;;;;;;4969212;28;20038;-84
2023/10/17 02:40:25;;;;;;;0.20;0.10;;;;;;;;;;4972223;28;20038;-84
2023/10/17 02:42:51;;;;;;;0.20;0.00;;;;;;;;;;4981799;28;20099;-84
2023/10/17 02:45:24;;;;;;;0.20;0.10;;;;;;;;;;5014926;22;20045;-81
2023/10/17 02:47:53;;;;;;;0.20;0.20;;;;;;;;;;4987873;28;20065;-79
2023/10/17 02:50:42;;;;;;;0.20;0.00;;;;;;;;;;4989946;28;20107;-80
2023/10/17 02:53:14;;;;;;;0.20;0.08;;;;;;;;;;4989623;28;20710;-80
2023/10/17 02:55:40;;;;;;;0.20;0.10;;;;;;;;;;4987745;28;20084;-80
2023/10/17 02:58:06;;;;;;;0.20;0.10;;;;;;;;;;4978474;28;20033;-80
2023/10/17 03:00:35;;;;;;;0.20;0.10;;;;;;;;;;4991329;28;20111;-80
2023/10/17 03:03:11;;;;;;;0.57;0.40;;;;;;;;;;4990170;28;20116;-80
2023/10/17 03:05:39;;;;;;;0.20;0.00;;;;;;;;;;4986605;28;20172;-80
2023/10/17 03:08:10;;;;;;;0.20;0.10;;;;;;;;;;4987485;28;20048;-80
2023/10/17 03:10:37;;;;;;;0.20;0.10;;;;;;;;;;4988532;28;20131;-80
2023/10/17 03:13:22;;;;;;;0.20;0.20;;;;;;;;;;4988674;28;20045;-81
2023/10/17 03:15:56;;;;;;;0.20;0.10;;;;;;;;;;4992054;28;20176;-80
2023/10/17 03:18:23;;;;;;;0.20;0.20;;;;;;;;;;5006820;28;20054;-79
2023/10/17 03:20:53;;;;;;;0.20;0.10;;;;;;;;;;4975929;28;20091;-80
2023/10/17 03:23:28;;;;;;;0.20;0.10;;;;;;;;;;4989433;28;20120;-81
2023/10/17 03:26:00;;;;;;;0.20;0.10;;;;;;;;;;4986969;28;20037;-80
2023/10/17 03:28:27;;;;;;;0.20;0.10;;;;;;;;;;4988567;28;20124;-79
2023/10/17 03:30:54;;;;;;;0.20;0.00;;;;;;;;;;4991686;28;20045;-80
2023/10/17 03:33:26;;;;;;;0.20;0.10;;;;;;;;;;4994701;28;20042;-81
2023/10/17 03:38:29;;;;;;;0.30;0.10;;;;;;;;;;4989748;28;20053;-80
2023/10/17 03:41:01;;;;;;;0.30;0.20;;;;;;;;;;4991973;28;20041;-81
2023/10/17 03:43:38;;;;;;;;;;;;;;;;;;4995668;28;20073;-79
2023/10/17 03:46:07;;;;;;;0.20;0.10;;;;;;;;;;4988069;28;19936;-81
2023/10/17 03:48:36;;;;;;;0.63;0.43;;;;;;;;;;4977800;28;20041;-80
2023/10/17 03:53:36;;;;;;;0.20;0.10;;;;;;;;;;4989137;28;20628;-79
2023/10/17 03:56:03;;;;;;;0.28;0.25;;;;;;;;;;4990094;28;20033;-80
2023/10/17 04:01:10;;;;;;;0.20;0.10;;;;;;;;;;4991051;28;20064;-80
2023/10/17 04:03:36;;;;;;;0.20;0.10;;;;;;;;;;5006291;28;20074;-79
2023/10/17 04:06:16;;;;;;;0.20;0.10;;;;;;;;;;4981623;28;20049;-80
2023/10/17 04:08:48;;;;;;;0.20;0.03;;;;;;;;;;4990021;28;20042;-79
2023/10/17 04:11:18;;;;;;;0.20;0.10;;;;;;;;;;4993288;28;20127;-79
2023/10/17 04:13:51;;;;;;;0.20;0.10;;;;;;;;;;4993090;28;20052;-80
2023/10/17 04:16:21;;;;;;;;;;;;;;;;;;5004179;28;20518;-80
2023/10/17 04:18:48;;;;;;;1.00;0.43;;;;;;;;;;4986280;28;20405;-80
2023/10/17 04:21:27;;;;;;;0.20;0.10;;;;;;;;;;4990811;28;20538;-80
2023/10/17 04:23:55;;;;;;;0.20;0.10;;;;;;;;;;4972160;28;20041;-80
2023/10/17 04:26:27;;;;;;;0.20;0.10;;;;;;;;;;5006254;28;20514;-80
2023/10/17 04:29:01;;;;;;;0.20;0.10;;;;;;;;;;4972441;28;20041;-80
2023/10/17 04:31:29;;;;;;;0.20;0.10;;;;;;;;;;4992298;28;20422;-80
2023/10/17 04:34:08;;;;;;;0.20;0.00;;;;;;;;;;4994646;28;20135;-81
2023/10/17 04:36:38;;;;;;;0.20;0.08;;;;;;;;;;4977144;28;20037;-81
2023/10/17 04:44:20;;;;;;;0.20;0.10;;;;;;;;;;4993838;28;20091;-79
2023/10/17 04:47:16;;;;;;;0.20;0.00;;;;;;;;;;4994809;28;20042;-80
2023/10/17 04:49:39;;;;;;;0.20;0.00;;;;;;;;;;4992190;28;20119;-80
2023/10/17 04:52:06;;;;;;;0.20;0.10;;;;;;;;;;4993016;28;20074;-80
2023/10/17 04:57:05;;;;;;;0.20;0.10;;;;;;;;;;4993640;28;20045;-80
2023/10/17 04:59:43;;;;;;;0.20;0.10;;;;;;;;;;4988067;28;20107;-79
2023/10/17 06:18:56;;;;;;;0.20;0.10;;;;;;;;;;4994661;28;20033;-80
2023/10/17 06:21:35;;;;;;;0.20;0.10;;;;;;;;;;4997766;28;20037;-80
2023/10/17 06:26:59;;;;;;;0.20;0.10;;;;;;;;;;4973004;28;20037;-79
2023/10/17 06:34:23;;;;;;;0.20;0.10;;;;;;;;;;4994056;28;20057;-80
2023/10/17 06:36:50;;;;;;;0.20;0.10;;;;;;;;;;4996188;28;20045;-80
2023/10/17 06:39:18;;;;;;;0.20;0.10;;;;;;;;;;4978757;28;20084;-79
2023/10/17 06:41:47;;;;;;;0.20;0.10;;;;;;;;;;4997370;28;20168;-80
2023/10/17 06:44:24;;;;;;;0.20;0.10;;;;;;;;;;4998269;28;20279;-80
2023/10/17 06:46:55;;;;;;;0.90;0.57;;;;;;;;;;4990143;28;20041;-80
2023/10/17 06:54:41;;;;;;;0.20;0.10;;;;;;;;;;4996602;28;20180;-80
2023/10/17 06:57:19;;;;;;;0.20;0.10;;;;;;;;;;4981345;28;20048;-80
2023/10/17 06:59:45;;;;;;;0.20;0.10;;;;;;;;;;4991125;28;20034;-78
2023/10/17 07:04:56;;;;;;;0.20;0.20;;;;;;;;;;4984485;28;20042;-80
2023/10/17 07:07:23;;;;;;;0.20;0.10;;;;;;;;;;4984701;28;20104;-80
2023/10/17 07:09:53;;;;;;;0.20;0.10;;;;;;;;;;4987170;28;20103;-80
2023/10/17 07:12:20;;;;;;;0.20;0.10;;;;;;;;;;4991802;28;20494;-80
2023/10/17 07:14:51;;;;;;;0.20;0.10;;;;;;;;;;4989295;28;20418;-80
2023/10/17 07:17:28;;;;;;;0.20;0.10;;;;;;;;;;4974696;28;20034;-80
2023/10/17 07:20:12;;;;;;;0.25;0.13;;;;;;;;;;4997102;28;20064;-80
2023/10/17 07:22:40;;;;;;;0.20;0.10;;;;;;;;;;4977460;28;20041;-80
2023/10/17 07:25:17;;;;;;;0.20;0.08;;;;;;;;;;4987640;28;20466;-80
2023/10/17 07:27:44;;;;;;;0.20;0.00;;;;;;;;;;4987190;28;20037;-80
2023/10/17 07:30:13;;;;;;;0.20;0.00;;;;;;;;;;4991770;28;20158;-80
2023/10/17 07:32:45;;;;;;;0.20;0.10;;;;;;;;;;4994486;28;20491;-79
2023/10/17 07:35:15;;;;;;;0.20;0.10;;;;;;;;;;4997331;28;20034;-80
2023/10/17 07:37:54;;;;;;;1.08;0.43;;;;;;;;;;4996069;28;20049;-80
2023/10/17 07:40:23;;;;;;;0.20;0.00;;;;;;;;;;4980993;28;20410;-79
2023/10/17 07:42:49;;;;;;;0.20;0.20;;;;;;;;;;4981693;28;20457;-80
2023/10/17 07:45:15;;;;;;;0.20;0.00;;;;;;;;;;4985314;28;20045;-80
2023/10/17 07:47:51;;;;;;;0.20;0.10;;;;;;;;;;4992162;28;20403;-80
2023/10/17 07:50:18;;;;;;;0.20;0.10;;;;;;;;;;5001696;28;20046;-79
2023/10/17 07:52:50;;;;;;;0.25;0.20;;;;;;;;;;4996018;28;20045;-81
2023/10/17 07:57:55;;;;;;;0.20;0.10;;;;;;;;;;4996374;28;20042;-80
2023/10/17 08:00:26;;;;;;;0.20;0.10;;;;;;;;;;4995640;28;20048;-80
2023/10/17 08:02:52;;;;;;;0.20;0.10;;;;;;;;;;4978174;28;20042;-80
2023/10/17 08:05:26;;;;;;;0.20;0.10;;;;;;;;;;4994860;28;20034;-80
2023/10/17 08:08:04;;;;;;;0.20;0.10;;;;;;;;;;4994662;28;20050;-80
2023/10/17 08:10:33;;;;;;;0.20;0.10;;;;;;;;;;4990442;28;20140;-80
2023/10/17 08:13:01;;;;;;;0.20;0.10;;;;;;;;;;4992754;28;20041;-80
2023/10/17 08:15:32;;;;;;;0.20;0.15;;;;;;;;;;4997214;28;20096;-80
2023/10/17 08:17:58;;;;;;;0.63;0.47;;;;;;;;;;4988303;28;20044;-80
2023/10/17 08:23:11;;;;;;;0.20;0.00;;;;;;;;;;4990851;28;20054;-79
2023/10/17 08:25:52;;;;;;;0.20;0.00;;;;;;;;;;4973975;28;20096;-80
2023/10/17 08:28:33;;;;;;;0.20;0.10;;;;;;;;;;4994437;28;20041;-81
2023/10/17 08:31:35;;;;;;;0.20;0.00;;;;;;;;;;4988674;28;20045;-80
2023/10/17 08:36:42;;;;;;;0.30;0.20;;;;;;;;;;4996674;28;20045;-80
2023/10/17 08:39:26;;;;;;;0.20;0.05;;;;;;;;;;5015446;28;20124;-81
2023/10/17 08:41:57;;;;;;;0.30;0.20;;;;;;;;;;5016520;28;20102;-80
2023/10/17 08:44:46;;;;;;;0.20;0.05;;;;;;;;;;4998458;28;20405;-80
2023/10/17 08:47:16;;;;;;;0.20;0.00;;;;;;;;;;4996460;28;20041;-80
2023/10/17 08:49:44;;;;;;;0.20;0.10;;;;;;;;;;4999286;28;20049;-80
2023/10/17 08:52:23;;;;;;;0.20;0.00;;;;;;;;;;5012937;28;20048;-80
2023/10/17 08:54:49;;;;;;;0.20;0.00;;;;;;;;;;5017319;28;20107;-82
2023/10/17 08:57:15;;;;;;;0.20;0.10;;;;;;;;;;4999431;28;20026;-79
2023/10/17 09:05:18;;;;;;;0.20;0.10;;;;;;;;;;5027131;28;20049;-80
2023/10/17 09:07:47;;;;;;;0.20;0.00;;;;;;;;;;4996314;28;20052;-81
2023/10/17 09:10:17;;;;;;;0.20;0.00;;;;;;;;;;5009557;28;20045;-81
2023/10/17 09:12:43;;;;;;;0.20;0.10;;;;;;;;;;4997559;28;20037;-82
2023/10/17 09:15:29;;;;;;;0.20;0.10;;;;;;;;;;5011935;28;20126;-82
2023/10/17 09:18:13;;;;;;;0.20;0.00;;;;;;;;;;5004550;28;20092;-80
2023/10/17 09:20:42;;;;;;;0.20;0.00;;;;;;;;;;5011949;28;20183;-80
2023/10/17 09:23:22;;;;;;;0.20;0.10;;;;;;;;;;4997661;28;20033;-80
2023/10/17 09:25:54;;;;;;;0.20;0.00;;;;;;;;;;5004017;28;20114;-81
2023/10/17 09:28:22;;;;;;;;;;;;;;;;;;4995411;28;20520;-80
2023/10/17 09:30:57;;;;;;;0.20;0.10;;;;;;;;;;5010464;28;20464;-82
2023/10/17 09:33:30;;;;;;;0.20;0.10;;;;;;;;;;5010045;28;20041;-80
2023/10/17 09:36:02;;;;;;;0.40;0.38;;;;;;;;;;5008400;28;20430;-80
2023/10/17 09:38:29;;;;;;;0.20;0.10;;;;;;;;;;5009577;28;20041;-81
2023/10/17 09:41:01;;;;;;;0.20;0.00;;;;;;;;;;5014886;28;20046;-80
2023/10/17 09:43:28;;;;;;;0.20;0.10;;;;;;;;;;5010993;28;20045;-80
2023/10/17 09:45:56;;;;;;;0.20;0.00;;;;;;;;;;5012860;28;20069;-80
2023/10/17 09:48:35;;;;;;;0.20;0.00;;;;;;;;;;4996696;28;20045;-80
2023/10/17 09:51:03;;;;;;;0.20;0.10;;;;;;;;;;5011130;28;20045;-81
2023/10/17 09:53:31;;;;;;;0.20;0.10;;;;;;;;;;5012327;28;20250;-79
2023/10/17 09:56:00;;;;;;;0.20;0.10;;;;;;;;;;5023442;28;20534;-80
2023/10/17 09:58:32;;;;;;;0.20;0.10;;;;;;;;;;5009638;28;20042;-81
2023/10/17 10:01:13;;;;;;;0.20;0.00;;;;;;;;;;4996036;28;20091;-80
2023/10/17 10:03:40;;;;;;;0.20;0.00;;;;;;;;;;5011685;28;20525;-81
2023/10/17 10:06:32;;;;;;;0.20;0.10;;;;;;;;;;5011390;28;20498;-83
2023/10/17 10:09:05;;;;;;;0.20;0.10;;;;;;;;;;5019406;28;20045;-81
2023/10/17 10:11:50;;;;;;;0.20;0.10;;;;;;;;;;4995149;28;20083;-81
2023/10/17 10:14:22;;;;;;;0.20;0.08;;;;;;;;;;5011707;28;20033;-80
2023/10/17 10:16:49;;;;;;;0.20;0.00;;;;;;;;;;5013479;28;20111;-81
2023/10/17 10:19:16;;;;;;;0.20;0.10;;;;;;;;;;4997288;28;20037;-80
2023/10/17 10:21:56;;;;;;;0.20;0.10;;;;;;;;;;4999228;28;20041;-80
2023/10/17 10:24:26;;;;;;;0.20;0.10;;;;;;;;;;5012093;28;20048;-79
2023/10/17 10:27:10;;;;;;;0.20;0.00;;;;;;;;;;4999277;28;20041;-81
2023/10/17 10:29:40;;;;;;;0.20;0.00;;;;;;;;;;5013972;28;20045;-81
2023/10/17 10:32:06;;;;;;;0.20;0.10;;;;;;;;;;5012191;28;20041;-83
2023/10/17 10:34:36;;;;;;;0.20;0.00;;;;;;;;;;5014762;28;20040;-83
2023/10/17 10:37:08;;;;;;;0.20;0.00;;;;;;;;;;5012284;28;20128;-80
2023/10/17 10:39:37;;;;;;;0.20;0.03;;;;;;;;;;5012457;28;20074;-80
2023/10/17 10:42:07;;;;;;;0.20;0.00;;;;;;;;;;5010307;28;20512;-79
2023/10/17 10:44:42;;;;;;;0.20;0.00;;;;;;;;;;5013021;28;20049;-81
2023/10/17 10:47:09;;;;;;;0.20;0.00;;;;;;;;;;5005319;28;20136;-82
2023/10/17 10:49:35;;;;;;;0.20;0.10;;;;;;;;;;4999864;28;20103;-83
2023/10/17 10:52:02;;;;;;;0.20;0.10;;;;;;;;;;5011507;28;20046;-83
2023/10/17 10:54:47;;;;;;;0.20;0.00;;;;;;;;;;5011726;28;20338;-80
2023/10/17 10:57:13;;;;;;;0.20;0.00;;;;;;;;;;5005941;28;20116;-79
2023/10/17 10:59:49;;;;;;;0.20;0.10;;;;;;;;;;5010972;28;20128;-79
2023/10/17 11:02:15;;;;;;;0.20;0.00;;;;;;;;;;5010002;28;20055;-79
2023/10/17 11:04:41;;;;;;;0.20;0.10;;;;;;;;;;5027358;22;20053;-81
2023/10/17 11:07:23;;;;;;;0.20;0.10;;;;;;;;;;5008755;28;20153;-80
2023/10/17 11:10:06;;;;;;;0.20;0.10;;;;;;;;;;5027579;28;20045;-81
2023/10/17 11:12:33;;;;;;;0.20;0.08;;;;;;;;;;5025513;28;20501;-82
2023/10/17 11:15:14;;;;;;;0.20;0.10;;;;;;;;;;5013462;28;20065;-81
2023/10/17 11:17:41;;;;;;;0.20;0.00;;;;;;;;;;5007256;28;20046;-83
2023/10/17 11:20:14;;;;;;;0.20;0.05;;;;;;;;;;5003140;28;20391;-84
2023/10/17 11:22:41;;;;;;;0.20;0.10;;;;;;;;;;5010908;28;20045;-81
2023/10/17 11:25:08;;;;;;;0.20;0.00;;;;;;;;;;5003115;28;20396;-82
2023/10/17 11:27:34;;;;;;;0.20;0.10;;;;;;;;;;4990719;28;20103;-82
2023/10/17 11:30:00;;;;;;;0.20;0.00;;;;;;;;;;5010287;28;20088;-83
2023/10/17 11:32:27;;;;;;;0.20;0.00;;;;;;;;;;5003196;28;20037;-81
2023/10/17 11:35:06;;;;;;;0.20;0.00;;;;;;;;;;5000125;28;20053;-83
2023/10/17 11:37:34;;;;;;;0.20;0.00;;;;;;;;;;5008518;28;20053;-82
2023/10/17 11:40:25;;;;;;;0.20;0.10;;;;;;;;;;4984337;28;20048;-81
2023/10/17 11:42:49;;;;;;;0.20;0.03;;;;;;;;;;5001990;28;20264;-81
2023/10/17 11:48:33;;;;;;;0.20;0.10;;;;;;;;;;4996516;28;20050;-82
2023/10/17 11:51:18;;;;;;;0.20;0.00;;;;;;;;;;5008157;28;20462;-80
2023/10/17 11:54:03;;;;;;;0.20;0.00;;;;;;;;;;5011594;28;20089;-82
2023/10/17 11:56:30;;;;;;;0.20;0.00;;;;;;;;;;4993828;28;20121;-80
2023/10/17 11:58:57;;;;;;;0.20;0.10;;;;;;;;;;5010276;28;20094;-81
2023/10/17 12:01:23;;;;;;;0.20;0.00;;;;;;;;;;5006469;28;20054;-82
2023/10/17 12:03:57;;;;;;;0.20;0.10;;;;;;;;;;5005620;28;20056;-83
2023/10/17 12:06:26;;;;;;;0.20;0.10;;;;;;;;;;5007180;28;20049;-81
2023/10/17 12:08:59;;;;;;;0.20;0.10;;;;;;;;;;4992424;28;20079;-81
2023/10/17 12:11:26;;;;;;;0.20;0.10;;;;;;;;;;5006590;28;20037;-82
2023/10/17 12:13:52;;;;;;;0.20;0.00;;;;;;;;;;5008693;28;20525;-82
2023/10/17 12:16:23;;;;;;;0.20;0.10;;;;;;;;;;4996378;28;20510;-82
2023/10/17 12:18:49;;;;;;;0.20;0.10;;;;;;;;;;5017336;28;20053;-82
2023/10/17 12:21:18;;;;;;;0.20;0.10;;;;;;;;;;5014128;28;20100;-81
2023/10/17 12:23:44;;;;;;;0.20;0.00;;;;;;;;;;5035221;28;20049;-83
2023/10/17 12:26:14;;;;;;;0.20;0.10;;;;;;;;;;4997877;28;20045;-81
2023/10/17 12:28:43;;;;;;;0.20;0.00;;;;;;;;;;5017593;28;20042;-80
2023/10/17 12:31:10;;;;;;;0.20;0.00;;;;;;;;;;5014715;28;20509;-83
2023/10/17 12:33:36;;;;;;;0.20;0.08;;;;;;;;;;5009347;28;20176;-83
2023/10/17 12:36:06;;;;;;;0.20;0.03;;;;;;;;;;5011784;28;20489;-82
2023/10/17 12:38:35;;;;;;;0.20;0.10;;;;;;;;;;5009652;28;20092;-82
2023/10/17 12:41:06;;;;;;;0.20;0.10;;;;;;;;;;4992309;28;20067;-87
2023/10/17 12:43:34;;;;;;;0.20;0.10;;;;;;;;;;5007977;28;20069;-83
2023/10/17 12:46:00;;;;;;;0.20;0.10;;;;;;;;;;5005207;28;20591;-84
2023/10/17 12:48:29;;;;;;;0.20;0.10;;;;;;;;;;5029617;28;20168;-85
2023/10/17 12:50:57;;;;;;;0.20;0.10;;;;;;;;;;5027049;28;20042;-82
2023/10/17 12:53:23;;;;;;;0.20;0.00;;;;;;;;;;4994436;28;20108;-81
2023/10/17 12:55:49;;;;;;;0.20;0.00;;;;;;;;;;5010323;28;20045;-83
2023/10/17 12:58:18;;;;;;;0.20;0.00;;;;;;;;;;5009891;28;20056;-82
2023/10/17 13:00:47;;;;;;;0.20;0.05;;;;;;;;;;5016277;28;20105;-82
2023/10/17 13:03:14;;;;;;;0.20;0.10;;;;;;;;;;5008360;28;20034;-80
2023/10/17 13:05:40;;;;;;;0.20;0.10;;;;;;;;;;4991628;28;20069;-82
2023/10/17 13:08:07;;;;;;;0.20;0.10;;;;;;;;;;5012630;28;20048;-82
2023/10/17 13:10:33;;;;;;;0.20;0.03;;;;;;;;;;4993380;28;20103;-86
2023/10/17 13:13:00;;;;;;;0.20;0.13;;;;;;;;;;4996884;28;20057;-82
2023/10/17 13:15:26;;;;;;;0.20;0.10;;;;;;;;;;4996748;28;20094;-82
2023/10/17 13:17:59;;;;;;;0.20;0.10;;;;;;;;;;5013241;28;20049;-80
2023/10/17 13:20:28;;;;;;;0.20;0.10;;;;;;;;;;5010404;28;20113;-83
2023/10/17 13:23:02;;;;;;;0.20;0.10;;;;;;;;;;4990034;28;20049;-80
2023/10/17 13:25:32;;;;;;;0.20;0.10;;;;;;;;;;5010376;28;20371;-84
2023/10/17 13:27:58;;;;;;;0.20;0.08;;;;;;;;;;5007462;28;20495;-83
2023/10/17 13:30:24;;;;;;;0.20;0.10;;;;;;;;;;5011237;28;20768;-83
2023/10/17 13:32:52;;;;;;;0.20;0.00;;;;;;;;;;5012355;28;20512;-81
2023/10/17 13:35:19;;;;;;;0.20;0.05;;;;;;;;;;5008277;28;20045;-81
2023/10/17 13:37:51;;;;;;;0.20;0.00;;;;;;;;;;4990561;28;20406;-84
2023/10/17 13:40:19;;;;;;;0.20;0.10;;;;;;;;;;5009125;28;20053;-82
2023/10/17 13:42:46;;;;;;;0.43;0.40;;;;;;;;;;4989171;28;20115;-82
2023/10/17 13:45:13;;;;;;;0.20;0.00;;;;;;;;;;5023103;28;20046;-82
2023/10/17 13:47:42;;;;;;;0.20;0.00;;;;;;;;;;5004980;28;20045;-84
2023/10/17 13:50:15;;;;;;;0.20;0.00;;;;;;;;;;5015037;28;20533;-84
2023/10/17 13:52:41;;;;;;;0.20;0.00;;;;;;;;;;4994469;28;20064;-81
2023/10/17 13:55:14;;;;;;;0.20;0.10;;;;;;;;;;4987225;28;20034;-82
2023/10/17 13:57:42;;;;;;;;;;;;;;;;;;5007583;28;20406;-83
2023/10/17 14:00:09;;;;;;;0.20;0.00;;;;;;;;;;5005308;28;19921;-83
2023/10/17 14:02:35;;;;;;;0.20;0.00;;;;;;;;;;5005813;28;20513;-82
2023/10/17 14:05:02;;;;;;;0.20;0.10;;;;;;;;;;4989611;28;20064;-83
2023/10/17 14:07:30;;;;;;;0.20;0.10;;;;;;;;;;5013013;28;20082;-82
2023/10/17 14:09:58;;;;;;;0.20;0.10;;;;;;;;;;4994308;28;20076;-81
2023/10/17 14:12:24;;;;;;;0.20;0.10;;;;;;;;;;4989585;28;20034;-85
2023/10/17 14:14:54;;;;;;;0.20;0.10;;;;;;;;;;5010977;28;20040;-87
2023/10/17 14:17:24;;;;;;;0.20;0.00;;;;;;;;;;5016983;28;20040;-83
2023/10/17 14:19:52;;;;;;;0.20;0.00;;;;;;;;;;5003155;28;20037;-81
2023/10/17 14:22:33;;;;;;;0.20;0.03;;;;;;;;;;4994503;28;20083;-83
2023/10/17 14:27:29;;;;;;;0.20;0.00;;;;;;;;;;5007541;28;20060;-84
2023/10/17 14:29:58;;;;;;;0.20;0.10;;;;;;;;;;5012332;28;20430;-85
2023/10/17 14:32:25;;;;;;;0.20;0.00;;;;;;;;;;5002961;28;20227;-79
2023/10/17 14:34:51;;;;;;;0.20;0.10;;;;;;;;;;5003951;28;20041;-83
2023/10/17 14:37:22;;;;;;;0.20;0.10;;;;;;;;;;5008576;28;20092;-82
2023/10/17 14:39:48;;;;;;;0.20;0.10;;;;;;;;;;4995317;28;20049;-83
2023/10/17 14:42:14;;;;;;;0.20;0.10;;;;;;;;;;4993966;28;20033;-81
2023/10/17 14:44:46;;;;;;;0.20;0.00;;;;;;;;;;5003693;28;20406;-84
2023/10/17 14:47:16;;;;;;;0.20;0.17;;;;;;;;;;4999537;28;20052;-85
2023/10/17 14:49:43;;;;;;;0.20;0.10;;;;;;;;;;4999915;28;20040;-82
2023/10/17 14:52:13;;;;;;;0.20;0.10;;;;;;;;;;5006887;28;20042;-83
2023/10/17 14:54:39;;;;;;;0.20;0.10;;;;;;;;;;5002356;28;20247;-81
2023/10/17 14:57:09;;;;;;;0.20;0.10;;;;;;;;;;5003051;28;20033;-81
2023/10/17 14:59:35;;;;;;;0.30;0.10;;;;;;;;;;5004040;28;20131;-81
2023/10/17 15:02:02;;;;;;;0.20;0.10;;;;;;;;;;4991756;28;20041;-81
2023/10/17 15:04:28;;;;;;;0.20;0.00;;;;;;;;;;4993612;28;20110;-83
2023/10/17 15:06:54;;;;;;;0.30;0.20;;;;;;;;;;5003903;28;20275;-81
2023/10/17 15:09:21;;;;;;;0.20;0.00;;;;;;;;;;5005388;28;20041;-80
2023/10/17 15:11:53;;;;;;;0.20;0.10;;;;;;;;;;5011379;28;20041;-82
2023/10/17 15:14:21;;;;;;;0.20;0.10;;;;;;;;;;5002871;28;20041;-82
2023/10/17 15:16:47;;;;;;;0.20;0.10;;;;;;;;;;5004891;28;20037;-83
2023/10/17 15:19:13;;;;;;;0.20;0.10;;;;;;;;;;4998837;28;20040;-82
2023/10/17 15:21:39;;;;;;;0.20;0.10;;;;;;;;;;5002952;28;20044;-81
2023/10/17 15:24:09;;;;;;;0.20;0.20;;;;;;;;;;5000564;28;20055;-83
2023/10/17 15:26:35;;;;;;;0.20;0.10;;;;;;;;;;5005840;28;20088;-82
2023/10/17 15:29:01;;;;;;;0.90;0.25;;;;;;;;;;4986704;28;20091;-81
2023/10/17 15:31:27;;;;;;;0.50;0.30;;;;;;;;;;4981601;28;20510;-81
2023/10/17 15:33:53;;;;;;;0.20;0.10;;;;;;;;;;4999247;28;20033;-81
2023/10/17 15:36:25;;;;;;;0.20;0.00;;;;;;;;;;5000458;28;20037;-81
2023/10/17 15:38:51;;;;;;;0.20;0.10;;;;;;;;;;5004440;28;20112;-80
2023/10/17 15:41:17;;;;;;;0.20;0.08;;;;;;;;;;5016423;28;20045;-81
2023/10/17 15:43:43;;;;;;;0.20;0.10;;;;;;;;;;5025285;28;20044;-81
2023/10/17 15:46:14;;;;;;;0.20;0.10;;;;;;;;;;5024139;28;21592;-81
2023/10/17 15:48:40;;;;;;;0.20;0.10;;;;;;;;;;5026331;28;20053;-81
2023/10/17 15:51:06;;;;;;;0.20;0.10;;;;;;;;;;5022365;28;20033;-81
2023/10/17 15:53:32;;;;;;;0.20;0.10;;;;;;;;;;5020549;28;20038;-81
2023/10/17 15:56:00;;;;;;;0.20;0.10;;;;;;;;;;5021817;28;20057;-80
2023/10/17 15:58:26;;;;;;;0.20;0.08;;;;;;;;;;5021741;28;20073;-82
2023/10/17 16:00:53;;;;;;;0.20;0.10;;;;;;;;;;5044282;28;20819;-81
2023/10/17 16:03:20;;;;;;;0.20;0.10;;;;;;;;;;5024646;28;20107;-81
2023/10/17 16:05:47;;;;;;;0.20;0.10;;;;;;;;;;5011437;28;20041;-81
2023/10/17 16:08:14;;;;;;;0.20;0.08;;;;;;;;;;5023681;28;20073;-81
2023/10/17 16:10:40;;;;;;;0.20;0.10;;;;;;;;;;5026721;28;20053;-81
2023/10/17 16:13:11;;;;;;;0.20;0.00;;;;;;;;;;5025682;28;20409;-81
2023/10/17 16:15:37;;;;;;;0.30;0.28;;;;;;;;;;5023197;28;20060;-82
2023/10/17 16:18:04;;;;;;;0.20;0.10;;;;;;;;;;5011588;28;20471;-81
2023/10/17 16:20:31;;;;;;;0.20;0.10;;;;;;;;;;5037077;28;20508;-82
2023/10/17 16:22:58;;;;;;;0.20;0.20;;;;;;;;;;5025285;28;20044;-82
2023/10/17 16:25:24;;;;;;;0.20;0.10;;;;;;;;;;5001155;28;20037;-81
2023/10/17 16:27:51;;;;;;;0.20;0.10;;;;;;;;;;5004262;28;20052;-82
2023/10/17 16:30:18;;;;;;;0.25;0.10;;;;;;;;;;5022900;28;20065;-82
2023/10/17 16:32:44;;;;;;;0.25;0.22;;;;;;;;;;5025605;28;20046;-82
2023/10/17 16:35:10;;;;;;;0.20;0.10;;;;;;;;;;5008026;28;20092;-81
2023/10/17 16:37:36;;;;;;;0.20;0.00;;;;;;;;;;5012151;28;20083;-81
2023/10/17 16:40:03;;;;;;;0.30;0.17;;;;;;;;;;5028097;28;20037;-81
2023/10/17 16:42:33;;;;;;;0.20;0.10;;;;;;;;;;5025455;28;20116;-82
2023/10/17 16:44:59;;;;;;;0.20;0.10;;;;;;;;;;5009169;28;20040;-82
2023/10/17 16:47:26;;;;;;;0.20;0.10;;;;;;;;;;5031386;28;20107;-80
2023/10/17 16:49:55;;;;;;;0.20;0.10;;;;;;;;;;5033388;28;20485;-81
2023/10/17 16:52:22;;;;;;;0.75;0.50;;;;;;;;;;5015463;28;20063;-82
2023/10/17 16:54:48;;;;;;;0.20;0.10;;;;;;;;;;5021081;28;20037;-81
2023/10/17 16:57:15;;;;;;;0.20;0.00;;;;;;;;;;5037595;28;20029;-82
2023/10/17 16:59:41;;;;;;;0.30;0.28;;;;;;;;;;5019420;28;20056;-82
2023/10/17 17:02:09;;;;;;;0.20;0.10;;;;;;;;;;5032386;28;20041;-82
2023/10/17 17:04:35;;;;;;;0.28;0.10;;;;;;;;;;5028281;23;20048;-80
2023/10/17 17:07:01;;;;;;;0.20;0.10;;;;;;;;;;4992996;28;20033;-80
2023/10/17 17:09:27;;;;;;;0.20;0.00;;;;;;;;;;5017972;28;20075;-80
2023/10/17 17:11:54;;;;;;;0.20;0.10;;;;;;;;;;5011001;28;20080;-80
2023/10/17 17:14:20;;;;;;;0.30;0.25;;;;;;;;;;5017390;28;20041;-80
2023/10/17 17:16:53;;;;;;;0.20;0.10;;;;;;;;;;5011913;28;20053;-80